HK-0001 weather

CLOSED Sha Tin Airfield
Hong Kong, Hong Kong

Public forecast

Using degrees Celsius for public forecast. Weather courtesy of forecast.io.

METAR (pilot weather report)

Closest report is Hong Kong International Airport, 15.9 nm (29.4 km) WSW. Retrieved 2019/05/25 23:30 UTC (0 seconds ago):

VHHH 252330Z 11007KT 080V150 9999 FEW011 SCT028 28/26 Q1007 NOSIG

TAF (pilot weather forecast)

Closest forecast is Hong Kong International Airport, 15.9 nm (29.4 km) WSW. Retrieved 2019/05/25 18:23 UTC (5 hours ago):

TAF VHHH 251700Z 2518/2624 14010KT 8000 FEW012 SCT022 TX30/2606Z TN26/2522Z TN27/2622Z TEMPO 2518/2523 VRB15G25KT 2500 TSRA SHRA FEW008CB SCT015 BKN040 TEMPO 2523/2603 3500 SHRA FEW012CB SCT020 TEMPO 2618/2624 3500 SHRA FEW012CB SCT020